< < Back
Terminal Aerodrome Forecast


Current Version              Previous Versions:   1  2  3  4  5  6  7  8  9  

Terminal Aerodrome Forecast

474
FTUS42 KJAX 171100 AAD
TAFJAX
TAF AMD
KJAX 171110Z 1711/1806 27005KT P6SM SCT010 BKN100
      TEMPO 1711/1713 1SM BR BKN002
     FM171600 32007KT P6SM VCSH SCT010 BKN100
     FM172000 02006KT P6SM VCTS SCT035CB
     FM180100 VRB03KT P6SM SCT200=



Latest METAR

970
SAUS80 KWBC 171300 CCA
MTRJAX
METAR KJAX 171256Z 32004KT 10SM SCT004 BKN130 BKN250 23/23 A2993 RMK AO2
SLP136 T02280228


USA.gov is the U.S. government's official web portal to all federal, state and local government web resources and services.